Bookmark and Share
Track history (hours):
 

Umm Slal

Last reported at 2014-Apr-23 12:33 UTC. Time now 2014-Apr-23 13:08 UTC.
Position N 31°40' E 032°03'.

Length 345 m; draft 9.3 m.

Type: Ship (hazmat cat D). MMSI: 538003300.

NotesDate/timePositionNaut miles runAvg speedWind from/ knotsBaromVisibWave heightAir tempDewpointWater temp
2014-Apr-23 12:33N 31°40' E 032°03'1818.0
2014-Apr-23 11:33N 31°52' E 031°48'2618.2
2014-Apr-23 10:07N 32°09' E 031°25'1018.4
2014-Apr-23 09:34N 32°16' E 031°16'2318.1
2014-Apr-23 08:19N 32°21' E 030°50'1418.0
2014-Apr-23 07:33N 32°25' E 030°34'1513.3
2014-Apr-23 06:25N 32°28' E 030°17'1618.3
2014-Apr-23 05:33N 32°32' E 029°59'76118.1
2014-Apr-21 11:33N 36°05' E 015°14'1818.3
2014-Apr-21 10:33N 36°11' E 014°52'1818.3
2014-Apr-21 09:33N 36°17' E 014°31'1818.3
2014-Apr-21 08:33N 36°22' E 014°09'1818.3
2014-Apr-21 07:33N 36°28' E 013°48'1818.2
2014-Apr-21 06:33N 36°34' E 013°26'1818.5
2014-Apr-21 05:33N 36°40' E 013°05'17018.2
2014-Apr-20 20:12N 37°51' E 009°50'1218.3
2014-Apr-20 19:31N 37°53' E 009°34'2218.2
2014-Apr-20 18:19N 37°57' E 009°07'2218.3
2014-Apr-20 17:06N 37°57' E 008°39'38518.3
2014-Apr-19 20:04N 37°02' E 000°38'1018.4
2014-Apr-19 19:32N 36°59' E 000°27'5317.9
2014-Apr-19 16:33N 36°39' W 000°35'21718.1
2014-Apr-19 04:33N 36°01' W 005°00'2121.0
2014-Apr-19 03:33N 35°57' W 005°26'1918.9
2014-Apr-19 02:33N 35°53' W 005°48'1918.1
2014-Apr-19 01:30N 35°52' W 006°12'17817.5
2014-Apr-18 15:20N 36°54' W 009°40'1518.5
2014-Apr-18 14:33N 37°08' W 009°44'1919.1
2014-Apr-18 13:33N 37°26' W 009°50'7618.5
2014-Apr-18 09:28N 38°40' W 010°12'70618.1
2014-Apr-16 18:32N 50°12' W 006°55'7818.4
2014-Apr-16 14:19N 51°14' W 005°41'24 0.6
2014-Apr-14 18:34N 50°54' W 006°05'  

Dump ship's entire track history

sailing weather and tide predictions

Umm Slal — V7PW3 — position and weather